createdAt,value
2023-03-17T00:00:02.319Z,3.20
2023-03-17T00:01:06.193Z,2.90
2023-03-17T00:01:39.977Z,3.00
2023-03-17T00:02:13.756Z,2.60
2023-03-17T00:02:49.865Z,3.10
2023-03-17T00:03:26.159Z,2.80
2023-03-17T00:03:59.961Z,2.70
2023-03-17T00:04:33.712Z,3.10
2023-03-17T00:05:16.349Z,2.80
2023-03-17T00:05:51.133Z,2.90
2023-03-17T00:06:30.064Z,3.00
2023-03-17T00:07:05.748Z,2.70
2023-03-17T00:07:39.443Z,3.00
2023-03-17T00:08:26.246Z,3.30
2023-03-17T00:08:59.788Z,3.00
2023-03-17T00:09:34.077Z,3.10
2023-03-17T00:10:14.650Z,3.30
2023-03-17T00:10:48.967Z,3.30
2023-03-17T00:11:31.245Z,3.00
2023-03-17T00:12:10.816Z,2.80
2023-03-17T00:12:46.096Z,3.20
2023-03-17T00:13:19.940Z,3.20
2023-03-17T00:13:53.432Z,3.00
2023-03-17T00:14:26.963Z,3.30
2023-03-17T00:15:00.635Z,3.10
2023-03-17T00:15:34.883Z,2.90
2023-03-17T00:16:17.088Z,3.20
2023-03-17T00:16:53.038Z,3.00
2023-03-17T00:17:29.418Z,3.40
2023-03-17T00:18:03.824Z,3.30
2023-03-17T00:18:37.927Z,3.60
2023-03-17T00:19:28.954Z,3.40
2023-03-17T00:20:06.194Z,2.90
2023-03-17T00:20:40.063Z,3.10
2023-03-17T00:21:15.951Z,3.00
2023-03-17T00:21:50.307Z,3.40
2023-03-17T00:22:27.576Z,3.40
2023-03-17T00:23:07.313Z,3.30
2023-03-17T00:23:51.868Z,3.30
2023-03-17T00:24:25.394Z,3.20
2023-03-17T00:25:00.388Z,3.40
2023-03-17T00:25:35.318Z,3.30
2023-03-17T00:26:10.680Z,3.10
2023-03-17T00:26:45.074Z,3.00
2023-03-17T00:27:18.872Z,3.00
2023-03-17T00:27:52.924Z,3.50
2023-03-17T00:28:28.219Z,3.50
2023-03-17T00:29:01.837Z,3.20
2023-03-17T00:29:35.645Z,3.20
2023-03-17T00:30:11.222Z,3.30
2023-03-17T00:30:45.803Z,3.00
2023-03-17T00:31:22.477Z,3.40
2023-03-17T00:31:57.980Z,3.30
2023-03-17T00:32:40.906Z,3.10
2023-03-17T00:33:16.900Z,2.90
2023-03-17T00:33:56.022Z,3.00
2023-03-17T00:34:34.680Z,3.00
2023-03-17T00:35:29.567Z,3.00
2023-03-17T00:36:03.351Z,2.90
2023-03-17T00:36:37.815Z,2.80
2023-03-17T00:37:14.762Z,3.20
2023-03-17T00:37:51.698Z,3.50
2023-03-17T00:38:28.512Z,3.00
2023-03-17T00:39:47.031Z,3.20
2023-03-17T00:40:31.417Z,3.20
2023-03-17T00:41:07.248Z,3.60
2023-03-17T00:41:41.141Z,3.10
2023-03-17T00:42:15.589Z,3.50
2023-03-17T00:42:51.674Z,3.30
2023-03-17T00:43:25.546Z,3.20
2023-03-17T00:43:59.353Z,3.20
2023-03-17T00:44:34.773Z,3.50
2023-03-17T00:45:08.642Z,3.00
2023-03-17T00:45:42.371Z,3.50
2023-03-17T00:46:22.076Z,3.40
2023-03-17T00:46:55.746Z,3.40
2023-03-17T00:47:29.413Z,3.40
2023-03-17T00:48:03.795Z,3.80
2023-03-17T00:48:37.418Z,3.40
2023-03-17T00:49:12.257Z,3.50
2023-03-17T00:49:48.549Z,3.40
2023-03-17T00:50:28.382Z,3.50
2023-03-17T00:51:02.327Z,3.40
2023-03-17T00:51:36.080Z,3.40
2023-03-17T00:52:09.693Z,3.50
2023-03-17T00:52:44.882Z,3.80
2023-03-17T00:53:21.802Z,3.50
2023-03-17T00:53:57.257Z,3.80
2023-03-17T00:54:34.581Z,3.20
2023-03-17T00:55:10.186Z,3.80
2023-03-17T00:55:47.795Z,3.40
2023-03-17T00:56:23.686Z,3.60
2023-03-17T00:56:57.182Z,3.30
2023-03-17T00:57:30.856Z,3.60
2023-03-17T00:58:24.272Z,3.20
2023-03-17T00:58:58.198Z,3.30
2023-03-17T00:59:41.269Z,3.60
2023-03-17T01:00:29.803Z,3.40
2023-03-17T01:01:03.774Z,3.30
2023-03-17T01:01:37.505Z,3.30
2023-03-17T01:02:14.910Z,3.40
2023-03-17T01:02:49.449Z,3.20
2023-03-17T01:03:24.157Z,3.50
2023-03-17T01:03:58.244Z,3.20
2023-03-17T01:04:32.707Z,3.30
2023-03-17T01:05:07.344Z,3.70
2023-03-17T01:05:41.742Z,3.10
2023-03-17T01:06:17.396Z,3.30
2023-03-17T01:06:52.468Z,3.40
2023-03-17T01:07:26.741Z,3.30
2023-03-17T01:08:00.541Z,3.40
2023-03-17T01:08:34.401Z,3.30
2023-03-17T01:09:08.614Z,3.30
2023-03-17T01:09:45.688Z,3.20
2023-03-17T01:10:26.041Z,3.40
2023-03-17T01:10:59.877Z,3.20
2023-03-17T01:11:35.651Z,3.70
2023-03-17T01:12:18.286Z,3.20
2023-03-17T01:12:55.821Z,3.30
2023-03-17T01:13:29.964Z,3.60
2023-03-17T01:14:05.101Z,4.00
2023-03-17T01:14:39.118Z,3.50
2023-03-17T01:15:14.520Z,3.60
2023-03-17T01:15:50.781Z,3.60
2023-03-17T01:16:24.437Z,3.50
2023-03-17T01:16:58.411Z,3.50
2023-03-17T01:17:32.592Z,3.60
2023-03-17T01:18:06.442Z,3.40
2023-03-17T01:18:40.238Z,3.40
2023-03-17T01:19:14.688Z,3.30
2023-03-17T01:19:48.961Z,3.40
2023-03-17T01:20:28.785Z,3.30
2023-03-17T01:21:02.890Z,3.40
2023-03-17T01:21:37.505Z,3.20
2023-03-17T01:22:14.593Z,3.60
2023-03-17T01:22:49.761Z,3.30
2023-03-17T01:23:24.007Z,3.60
2023-03-17T01:23:58.028Z,3.60
2023-03-17T01:24:32.145Z,3.50
2023-03-17T01:25:06.584Z,3.70
2023-03-17T01:25:43.236Z,3.40
2023-03-17T01:26:18.499Z,3.90
2023-03-17T01:26:52.681Z,3.60
2023-03-17T01:27:26.674Z,3.50
2023-03-17T01:28:00.609Z,3.60
2023-03-17T01:28:36.361Z,3.70
2023-03-17T01:29:10.337Z,3.80
2023-03-17T01:29:44.136Z,3.50
2023-03-17T01:30:31.114Z,3.80
2023-03-17T01:31:05.427Z,3.60
2023-03-17T01:31:39.749Z,3.40
2023-03-17T01:32:14.604Z,3.60
2023-03-17T01:32:48.915Z,3.70
2023-03-17T01:33:23.161Z,3.90
2023-03-17T01:33:57.170Z,3.60
2023-03-17T01:34:31.362Z,3.40
2023-03-17T01:35:07.137Z,3.60
2023-03-17T01:35:44.058Z,3.80
2023-03-17T01:36:18.177Z,3.70
2023-03-17T01:36:52.202Z,3.90
2023-03-17T01:37:27.290Z,3.90
2023-03-17T01:38:01.896Z,3.70
2023-03-17T01:38:36.756Z,3.60
2023-03-17T01:39:11.346Z,3.90
2023-03-17T01:39:45.837Z,3.90
2023-03-17T01:40:29.629Z,4.10
2023-03-17T01:41:04.425Z,3.70
2023-03-17T01:41:43.132Z,3.70
2023-03-17T01:42:18.031Z,3.80
2023-03-17T01:42:55.595Z,3.70
2023-03-17T01:43:30.998Z,3.70
2023-03-17T01:44:05.349Z,4.10
2023-03-17T01:45:01.268Z,3.60
2023-03-17T01:46:12.648Z,3.40
2023-03-17T01:47:26.419Z,3.20
2023-03-17T01:48:00.072Z,3.50
2023-03-17T01:48:44.776Z,4.10
2023-03-17T01:49:43.352Z,3.80
2023-03-17T01:50:16.955Z,3.70
2023-03-17T01:50:51.151Z,4.00
2023-03-17T01:51:48.030Z,4.30
2023-03-17T01:52:23.554Z,3.70
2023-03-17T01:52:59.531Z,4.10
2023-03-17T01:53:37.466Z,3.90
2023-03-17T01:54:17.556Z,4.00
2023-03-17T01:54:57.112Z,3.70
2023-03-17T01:55:31.808Z,4.00
2023-03-17T01:56:06.559Z,4.10
2023-03-17T01:56:44.296Z,3.80
2023-03-17T01:57:26.988Z,4.00
2023-03-17T01:58:05.168Z,3.90
2023-03-17T01:58:40.903Z,3.60
2023-03-17T01:59:22.382Z,3.80
2023-03-17T02:00:02.060Z,4.00
2023-03-17T02:00:36.112Z,4.10
2023-03-17T02:01:10.992Z,4.00
2023-03-17T02:01:49.722Z,3.90
2023-03-17T02:02:31.103Z,3.80
2023-03-17T02:03:06.413Z,3.70
2023-03-17T02:03:42.330Z,3.80
2023-03-17T02:04:18.693Z,3.70
2023-03-17T02:04:56.997Z,3.40
2023-03-17T02:05:33.205Z,3.90
2023-03-17T02:06:08.354Z,4.00
2023-03-17T02:06:56.916Z,3.50
2023-03-17T02:07:40.455Z,3.40
2023-03-17T02:08:17.046Z,3.60
2023-03-17T02:08:52.283Z,3.70
2023-03-17T02:09:35.622Z,3.40
2023-03-17T02:10:13.081Z,3.80
2023-03-17T02:10:50.900Z,3.50
2023-03-17T02:11:24.520Z,3.60
2023-03-17T02:12:02.282Z,4.00
2023-03-17T02:12:36.767Z,3.70
2023-03-17T02:13:13.591Z,3.90
2023-03-17T02:13:47.410Z,3.30
2023-03-17T02:14:22.130Z,4.30
2023-03-17T02:14:56.276Z,3.90
2023-03-17T02:15:51.946Z,3.90
2023-03-17T02:16:26.902Z,3.70
2023-03-17T02:17:01.069Z,3.70
2023-03-17T02:17:35.258Z,3.90
2023-03-17T02:18:12.863Z,4.00
2023-03-17T02:18:51.579Z,3.50
2023-03-17T02:19:27.950Z,4.00
2023-03-17T02:20:19.075Z,3.90
2023-03-17T02:20:55.035Z,4.20
2023-03-17T02:21:41.288Z,4.00
2023-03-17T02:22:17.282Z,3.90
2023-03-17T02:22:55.238Z,4.10
2023-03-17T02:23:30.981Z,3.90
2023-03-17T02:24:16.244Z,4.50
2023-03-17T02:25:00.033Z,4.50
2023-03-17T02:25:36.943Z,3.70
2023-03-17T02:26:16.094Z,4.10
2023-03-17T02:26:54.483Z,4.20
2023-03-17T02:27:36.309Z,4.20
2023-03-17T02:28:16.539Z,3.90
2023-03-17T02:28:54.184Z,3.90
2023-03-17T02:29:28.949Z,4.10
2023-03-17T02:30:07.635Z,4.10
2023-03-17T02:30:42.557Z,3.90
2023-03-17T02:31:21.468Z,3.80
2023-03-17T02:31:55.862Z,3.90
2023-03-17T02:32:36.532Z,4.30
2023-03-17T02:33:19.432Z,4.10
2023-03-17T02:33:55.438Z,4.00
2023-03-17T02:34:33.862Z,4.20
2023-03-17T02:35:11.488Z,3.90
2023-03-17T02:35:46.629Z,3.80
2023-03-17T02:36:24.065Z,4.30
2023-03-17T02:36:58.832Z,4.20
2023-03-17T02:37:38.240Z,4.00
2023-03-17T02:38:12.377Z,4.00
2023-03-17T02:38:46.273Z,3.90
2023-03-17T02:39:21.451Z,3.90
2023-03-17T02:39:56.068Z,4.10
2023-03-17T02:40:30.140Z,4.30
2023-03-17T02:41:04.078Z,4.10
2023-03-17T02:41:39.855Z,4.10
2023-03-17T02:42:14.583Z,4.40
2023-03-17T02:42:48.608Z,3.80
2023-03-17T02:43:22.664Z,4.30
2023-03-17T02:43:57.185Z,4.10
2023-03-17T02:44:33.192Z,4.10
2023-03-17T02:45:08.257Z,4.00
2023-03-17T02:45:42.043Z,4.10
2023-03-17T02:46:18.651Z,4.20
2023-03-17T02:46:53.233Z,4.00
2023-03-17T02:47:27.949Z,4.00
2023-03-17T02:48:01.910Z,4.10
2023-03-17T02:48:40.933Z,3.90
2023-03-17T02:51:19.382Z,4.10
2023-03-17T02:51:53.704Z,4.30
2023-03-17T02:52:27.341Z,4.80
2023-03-17T02:53:00.954Z,4.10
2023-03-17T02:53:35.068Z,4.50
2023-03-17T02:54:08.878Z,3.90
2023-03-17T02:54:43.003Z,4.20
2023-03-17T02:55:17.236Z,4.00
2023-03-17T02:55:50.980Z,4.30
2023-03-17T02:56:24.550Z,4.90
2023-03-17T02:56:57.995Z,4.30
2023-03-17T02:57:31.741Z,4.10
2023-03-17T02:58:05.268Z,4.20
2023-03-17T02:58:39.289Z,4.30
2023-03-17T02:59:12.897Z,4.00
2023-03-17T02:59:46.571Z,4.30
2023-03-17T03:00:22.683Z,4.10
2023-03-17T03:00:56.851Z,4.40
2023-03-17T03:01:31.166Z,4.10
2023-03-17T03:02:04.729Z,4.70
2023-03-17T03:02:39.423Z,4.00
2023-03-17T03:03:13.236Z,4.40
2023-03-17T03:03:47.613Z,4.00
2023-03-17T03:04:21.350Z,4.10
2023-03-17T03:04:54.866Z,4.40
2023-03-17T03:05:29.147Z,4.40
2023-03-17T03:06:03.617Z,4.30
2023-03-17T03:06:37.740Z,4.00
2023-03-17T03:07:11.736Z,4.20
2023-03-17T03:07:45.633Z,4.20
2023-03-17T03:08:19.093Z,4.20
2023-03-17T03:08:52.873Z,4.40
2023-03-17T03:09:26.356Z,4.30
2023-03-17T03:09:59.812Z,4.40
2023-03-17T03:10:33.287Z,4.80
2023-03-17T03:11:07.327Z,4.60
2023-03-17T03:11:41.032Z,4.70
2023-03-17T03:12:14.837Z,4.40
2023-03-17T03:12:48.358Z,4.40
2023-03-17T03:13:21.991Z,4.50
2023-03-17T03:13:55.432Z,4.40
2023-03-17T03:14:28.990Z,4.00
2023-03-17T03:15:02.673Z,4.10
2023-03-17T03:15:36.309Z,4.60
2023-03-17T03:16:10.461Z,4.50
2023-03-17T03:16:44.335Z,4.10
2023-03-17T03:17:18.170Z,4.40
2023-03-17T03:17:51.776Z,4.20
2023-03-17T03:18:25.286Z,4.00
2023-03-17T03:18:58.833Z,4.30
2023-03-17T03:19:32.549Z,4.30
2023-03-17T03:20:06.759Z,4.30
2023-03-17T03:20:44.297Z,4.40
2023-03-17T03:21:17.758Z,3.60
2023-03-17T03:21:51.282Z,4.10
2023-03-17T03:22:24.778Z,4.30
2023-03-17T03:22:58.392Z,4.10
2023-03-17T03:23:32.672Z,4.20
2023-03-17T03:24:06.838Z,3.90
2023-03-17T03:24:41.014Z,4.00
2023-03-17T03:25:17.375Z,4.20
2023-03-17T03:25:50.926Z,4.30
2023-03-17T03:26:24.726Z,4.10
2023-03-17T03:26:58.381Z,3.90
2023-03-17T03:27:32.856Z,4.20
2023-03-17T03:28:08.361Z,4.10
2023-03-17T03:28:42.970Z,4.50
2023-03-17T03:29:17.113Z,4.50
2023-03-17T03:29:51.574Z,4.40
2023-03-17T03:30:24.976Z,4.40
2023-03-17T03:30:58.494Z,4.20
2023-03-17T03:31:32.111Z,4.40
2023-03-17T03:32:05.933Z,4.20
2023-03-17T03:32:39.364Z,4.20
2023-03-17T03:33:16.827Z,4.50
2023-03-17T03:33:50.937Z,4.20
2023-03-17T03:34:24.280Z,4.10
2023-03-17T03:34:57.776Z,3.80
2023-03-17T03:35:31.524Z,4.30
2023-03-17T03:36:05.211Z,4.50
2023-03-17T03:36:38.730Z,4.20
2023-03-17T03:38:56.707Z,3.70
2023-03-17T03:39:30.343Z,4.30
2023-03-17T03:40:04.337Z,3.90
2023-03-17T03:40:38.282Z,4.10
2023-03-17T03:41:11.833Z,4.30
2023-03-17T03:41:45.449Z,4.60
2023-03-17T03:42:20.974Z,4.40
2023-03-17T03:42:55.078Z,4.60
2023-03-17T03:43:28.473Z,5.00
2023-03-17T03:44:02.514Z,4.30
2023-03-17T03:44:36.136Z,4.20
2023-03-17T03:45:10.192Z,4.50
2023-03-17T03:45:43.949Z,4.40
2023-03-17T03:46:18.005Z,4.10
2023-03-17T03:46:52.463Z,4.50
2023-03-17T03:47:26.000Z,5.20
2023-03-17T03:47:59.485Z,4.40
2023-03-17T03:48:33.090Z,4.40
2023-03-17T03:49:06.523Z,4.90
2023-03-17T03:49:40.156Z,4.60
2023-03-17T03:50:14.507Z,4.60
2023-03-17T03:50:48.533Z,4.30
2023-03-17T03:51:21.916Z,4.50
2023-03-17T03:51:56.811Z,4.40
2023-03-17T03:52:30.292Z,4.70
2023-03-17T03:53:04.176Z,4.40
2023-03-17T03:53:37.639Z,4.40
2023-03-17T03:54:11.049Z,3.80
2023-03-17T03:54:44.816Z,4.70
2023-03-17T03:55:18.382Z,4.00
2023-03-17T03:55:52.623Z,4.40
2023-03-17T03:56:26.224Z,4.20
2023-03-17T03:56:59.629Z,4.70
2023-03-17T03:57:33.369Z,4.30
2023-03-17T03:58:06.980Z,4.40
2023-03-17T03:58:40.445Z,4.70
2023-03-17T03:59:15.380Z,4.40
2023-03-17T03:59:48.855Z,4.70
2023-03-17T04:00:23.151Z,4.30
2023-03-17T04:00:57.155Z,4.40
2023-03-17T04:01:30.674Z,4.80
2023-03-17T04:02:04.284Z,4.40
2023-03-17T04:02:37.849Z,4.70
2023-03-17T04:03:14.894Z,4.20
2023-03-17T04:03:48.380Z,4.20
2023-03-17T04:04:22.116Z,4.00
2023-03-17T04:04:55.835Z,4.30
2023-03-17T04:05:29.466Z,4.90
2023-03-17T04:06:03.800Z,4.60
2023-03-17T04:06:37.252Z,4.50
2023-03-17T04:07:11.131Z,4.50
2023-03-17T04:07:45.249Z,4.40
2023-03-17T04:08:18.721Z,4.70
2023-03-17T04:08:52.448Z,4.50
2023-03-17T04:09:26.143Z,4.20
2023-03-17T04:10:00.175Z,4.70
2023-03-17T04:10:34.022Z,4.20
2023-03-17T04:11:07.770Z,4.30
2023-03-17T04:11:41.818Z,4.20
2023-03-17T04:12:17.118Z,4.20
2023-03-17T04:12:50.954Z,4.80
2023-03-17T04:13:24.362Z,4.30
2023-03-17T04:13:59.456Z,4.30
2023-03-17T04:14:33.723Z,4.20
2023-03-17T04:15:09.355Z,4.50
2023-03-17T04:15:42.983Z,4.40
2023-03-17T04:16:16.488Z,4.80
2023-03-17T04:16:49.938Z,4.40
2023-03-17T04:17:23.491Z,4.30
2023-03-17T04:17:57.037Z,4.30
2023-03-17T04:18:32.022Z,4.10
2023-03-17T04:19:05.659Z,4.20
2023-03-17T04:19:39.885Z,4.10
2023-03-17T04:20:14.857Z,4.00
2023-03-17T04:20:48.361Z,4.40
2023-03-17T04:21:22.001Z,3.80
2023-03-17T04:21:55.557Z,4.40
2023-03-17T04:22:28.985Z,4.20
2023-03-17T04:23:08.667Z,4.50
2023-03-17T04:23:44.817Z,4.30
2023-03-17T04:24:18.346Z,4.20
2023-03-17T04:24:52.443Z,4.40
2023-03-17T04:25:26.530Z,4.40
2023-03-17T04:26:00.044Z,4.20
2023-03-17T04:26:34.084Z,4.00
2023-03-17T04:27:08.321Z,4.50
2023-03-17T04:27:43.214Z,4.60
2023-03-17T04:28:17.080Z,4.50
2023-03-17T04:28:50.578Z,4.90
2023-03-17T04:29:24.145Z,4.10
2023-03-17T04:29:57.645Z,4.10
2023-03-17T04:30:31.782Z,4.10
2023-03-17T04:31:05.538Z,4.70
2023-03-17T04:31:40.100Z,4.20
2023-03-17T04:32:19.391Z,4.40
2023-03-17T04:32:52.942Z,4.20
2023-03-17T04:33:26.851Z,4.00
2023-03-17T04:34:02.946Z,4.50
2023-03-17T04:34:36.623Z,4.00
2023-03-17T04:35:15.472Z,4.10
2023-03-17T04:35:49.180Z,4.50
2023-03-17T04:36:24.220Z,4.30
2023-03-17T04:36:57.861Z,4.00
2023-03-17T04:37:34.092Z,4.20
2023-03-17T04:38:09.193Z,4.30
2023-03-17T04:38:42.624Z,4.30
2023-03-17T04:39:16.746Z,4.20
2023-03-17T04:39:50.351Z,4.50
2023-03-17T04:40:23.825Z,4.40
2023-03-17T04:40:57.489Z,4.00
2023-03-17T04:41:31.503Z,4.50
2023-03-17T04:42:06.771Z,4.30
2023-03-17T04:42:40.911Z,4.20
2023-03-17T04:43:14.481Z,4.50
2023-03-17T04:43:47.999Z,4.90
2023-03-17T04:44:21.341Z,4.20
2023-03-17T04:44:54.857Z,4.40
2023-03-17T04:45:28.779Z,4.30
2023-03-17T04:46:02.359Z,4.50
2023-03-17T04:46:37.281Z,4.30
2023-03-17T04:47:11.126Z,4.10
2023-03-17T04:47:46.455Z,4.40
2023-03-17T04:48:19.919Z,4.60
2023-03-17T04:48:53.385Z,4.20
2023-03-17T04:49:27.454Z,4.10
2023-03-17T04:50:01.682Z,4.20
2023-03-17T04:50:35.844Z,3.90
2023-03-17T04:51:11.676Z,4.50
2023-03-17T04:51:45.446Z,4.20
2023-03-17T04:52:18.894Z,4.10
2023-03-17T04:52:52.467Z,4.60
2023-03-17T04:53:25.948Z,4.20
2023-03-17T04:53:59.500Z,4.40
2023-03-17T04:54:33.004Z,3.70
2023-03-17T04:55:12.183Z,4.10
2023-03-17T04:55:46.275Z,4.20
2023-03-17T04:56:19.873Z,4.40
2023-03-17T04:56:53.517Z,4.10
2023-03-17T04:57:27.190Z,4.40
2023-03-17T04:58:01.300Z,4.20
2023-03-17T04:58:35.714Z,4.10
2023-03-17T04:59:09.501Z,3.80
2023-03-17T04:59:43.080Z,4.40
2023-03-17T05:00:16.793Z,4.10
2023-03-17T05:00:50.281Z,4.20
2023-03-17T05:01:23.796Z,4.10
2023-03-17T05:01:57.452Z,4.00
2023-03-17T05:02:33.081Z,4.30
2023-03-17T05:03:24.092Z,4.30
2023-03-17T05:03:59.976Z,4.10
2023-03-17T05:04:34.187Z,3.90
2023-03-17T05:05:07.898Z,4.20
2023-03-17T05:05:41.317Z,4.10
2023-03-17T05:06:15.016Z,4.10
2023-03-17T05:06:48.393Z,3.80
2023-03-17T05:07:21.884Z,4.20
2023-03-17T05:07:55.275Z,4.20
2023-03-17T05:08:29.590Z,4.00
2023-03-17T05:09:04.077Z,4.20
2023-03-17T05:09:38.090Z,3.70
2023-03-17T05:10:12.680Z,4.30
2023-03-17T05:10:46.141Z,3.90
2023-03-17T05:11:19.704Z,4.00
2023-03-17T05:11:53.121Z,4.00
2023-03-17T05:12:27.159Z,4.50
2023-03-17T05:13:00.681Z,4.10
2023-03-17T05:13:34.202Z,4.30
2023-03-17T05:14:07.567Z,4.10
2023-03-17T05:14:41.236Z,3.80
2023-03-17T05:15:14.817Z,4.00
2023-03-17T05:15:49.794Z,4.10
2023-03-17T05:16:23.720Z,4.10
2023-03-17T05:16:57.363Z,3.90
2023-03-17T05:17:31.792Z,4.40
2023-03-17T05:18:05.601Z,4.00
2023-03-17T05:18:43.891Z,3.90
2023-03-17T05:19:18.355Z,3.80
2023-03-17T05:19:51.727Z,4.40
2023-03-17T05:20:25.248Z,3.90
2023-03-17T05:20:58.684Z,4.20
2023-03-17T05:21:32.260Z,4.10
2023-03-17T05:22:06.021Z,4.40
2023-03-17T05:22:39.572Z,4.50
2023-03-17T05:23:13.470Z,4.00
2023-03-17T05:23:46.902Z,4.10
2023-03-17T05:24:20.472Z,4.00
2023-03-17T05:24:53.987Z,3.90
2023-03-17T05:25:27.524Z,4.10
2023-03-17T05:26:01.086Z,4.30
2023-03-17T05:26:34.860Z,3.80
2023-03-17T05:27:08.353Z,4.20
2023-03-17T05:27:41.699Z,4.50
2023-03-17T05:28:15.656Z,4.10
2023-03-17T05:28:49.068Z,4.10
2023-03-17T05:29:22.591Z,4.30
2023-03-17T05:29:57.049Z,4.10
2023-03-17T05:30:31.131Z,3.90
2023-03-17T05:31:05.512Z,3.90
2023-03-17T05:31:39.308Z,4.40
2023-03-17T05:32:13.784Z,3.80
2023-03-17T05:32:47.282Z,4.10
2023-03-17T05:33:21.895Z,4.10
2023-03-17T05:33:55.369Z,4.20
2023-03-17T05:34:28.819Z,4.10
2023-03-17T05:35:03.905Z,3.90
2023-03-17T05:35:37.481Z,4.10
2023-03-17T05:36:10.982Z,3.90
2023-03-17T05:36:44.888Z,4.30
2023-03-17T05:37:18.539Z,5.20
2023-03-17T05:37:52.735Z,3.70
2023-03-17T05:38:26.277Z,4.30
2023-03-17T05:39:00.093Z,4.00
2023-03-17T05:39:33.712Z,4.40
2023-03-17T05:40:08.608Z,4.30
2023-03-17T05:40:42.968Z,4.00
2023-03-17T05:41:16.666Z,4.10
2023-03-17T05:41:51.344Z,4.40
2023-03-17T05:42:24.747Z,4.10
2023-03-17T05:42:58.377Z,4.30
2023-03-17T05:43:31.861Z,5.30
2023-03-17T05:44:05.442Z,6.90
2023-03-17T05:44:38.775Z,9.20
2023-03-17T05:45:12.590Z,11.20
2023-03-17T05:45:47.479Z,12.50
2023-03-17T05:46:21.816Z,11.30
2023-03-17T05:46:56.132Z,11.60
2023-03-17T05:47:32.295Z,9.90
2023-03-17T05:48:06.939Z,9.60
2023-03-17T05:48:44.391Z,8.80
2023-03-17T05:49:18.835Z,9.00
2023-03-17T05:49:52.831Z,8.40
2023-03-17T05:50:27.316Z,8.20
2023-03-17T05:51:01.389Z,7.80
2023-03-17T05:51:37.053Z,7.70
2023-03-17T05:52:11.208Z,7.90
2023-03-17T05:52:49.039Z,8.10
2023-03-17T05:53:22.823Z,7.60
2023-03-17T05:53:56.914Z,8.00
2023-03-17T05:55:18.058Z,7.40
2023-03-17T05:55:55.685Z,7.80
2023-03-17T05:56:33.802Z,6.90
2023-03-17T05:57:08.383Z,7.20
2023-03-17T05:57:41.965Z,7.10
2023-03-17T05:58:18.596Z,6.90
2023-03-17T05:58:51.876Z,7.30
2023-03-17T05:59:25.386Z,6.90
2023-03-17T05:59:58.811Z,6.90
2023-03-17T06:00:32.881Z,7.50
2023-03-17T06:01:06.665Z,7.60
2023-03-17T06:01:40.315Z,7.50
2023-03-17T06:02:14.800Z,8.40
2023-03-17T06:02:48.635Z,8.20
2023-03-17T06:03:22.552Z,8.80
2023-03-17T06:03:56.356Z,9.10
2023-03-17T06:04:30.236Z,9.60
2023-03-17T06:05:04.174Z,9.00
2023-03-17T06:05:37.824Z,8.70
2023-03-17T06:06:11.283Z,8.40
2023-03-17T06:06:44.854Z,8.10
2023-03-17T06:07:18.576Z,7.30
2023-03-17T06:07:56.271Z,7.10
2023-03-17T06:08:29.868Z,5.80
2023-03-17T06:09:03.370Z,5.70
2023-03-17T06:09:37.116Z,5.20
2023-03-17T06:10:12.128Z,5.10
2023-03-17T06:10:46.017Z,4.40
2023-03-17T06:11:22.340Z,4.50
2023-03-17T06:11:55.753Z,4.30
2023-03-17T06:12:30.151Z,4.60
2023-03-17T06:13:05.961Z,4.20
2023-03-17T06:13:39.548Z,4.50
2023-03-17T06:14:13.433Z,5.00
2023-03-17T06:14:47.509Z,4.60
2023-03-17T06:15:21.043Z,4.50
2023-03-17T06:15:54.662Z,4.50
2023-03-17T06:16:30.924Z,4.70
2023-03-17T06:17:04.941Z,4.70
2023-03-17T06:17:38.702Z,4.50
2023-03-17T06:18:12.336Z,4.40
2023-03-17T06:18:46.098Z,5.00
2023-03-17T06:19:21.349Z,4.80
2023-03-17T06:19:56.510Z,4.40
2023-03-17T06:20:33.114Z,4.80
2023-03-17T06:21:09.272Z,4.80
2023-03-17T06:21:46.314Z,4.70
2023-03-17T06:22:21.692Z,4.50
2023-03-17T06:23:04.425Z,4.30
2023-03-17T06:23:43.292Z,4.70
2023-03-17T06:24:21.122Z,4.50
2023-03-17T06:24:56.093Z,4.60
2023-03-17T06:25:30.003Z,4.50
2023-03-17T06:26:03.968Z,4.30
2023-03-17T06:26:37.775Z,4.60
2023-03-17T06:27:14.466Z,4.60
2023-03-17T06:27:48.280Z,4.60
2023-03-17T06:28:22.257Z,4.30
2023-03-17T06:28:55.694Z,4.90
2023-03-17T06:29:30.786Z,4.80
2023-03-17T06:30:08.276Z,5.00
2023-03-17T06:30:41.736Z,4.30
2023-03-17T06:31:15.241Z,4.40
2023-03-17T06:31:51.342Z,4.70
2023-03-17T06:32:25.333Z,4.40
2023-03-17T06:32:59.426Z,4.20
2023-03-17T06:33:32.981Z,4.00
2023-03-17T06:34:07.017Z,4.10
2023-03-17T06:34:42.870Z,4.10
2023-03-17T06:35:17.268Z,4.40
2023-03-17T06:35:51.894Z,4.20
2023-03-17T06:36:25.444Z,4.70
2023-03-17T06:36:59.318Z,4.00
2023-03-17T06:37:33.495Z,4.30
2023-03-17T06:38:07.479Z,4.30
2023-03-17T06:38:40.961Z,4.20
2023-03-17T06:39:15.965Z,4.20
2023-03-17T06:39:49.873Z,3.90
2023-03-17T06:40:23.340Z,4.00
2023-03-17T06:40:58.157Z,4.30
2023-03-17T06:41:31.807Z,4.20
2023-03-17T06:42:06.369Z,4.40
2023-03-17T06:42:40.034Z,4.00
2023-03-17T06:43:13.704Z,3.70
2023-03-17T06:43:47.348Z,4.40
2023-03-17T06:44:21.418Z,3.90
2023-03-17T06:44:55.963Z,4.60
2023-03-17T06:45:29.883Z,4.20
2023-03-17T06:46:04.138Z,4.90
2023-03-17T06:46:37.676Z,4.30
2023-03-17T06:47:11.473Z,4.00
2023-03-17T06:47:45.875Z,4.40
2023-03-17T06:48:19.613Z,4.50
2023-03-17T06:48:53.006Z,4.40
2023-03-17T06:49:26.553Z,4.30
2023-03-17T06:50:00.144Z,4.50
2023-03-17T06:50:33.638Z,4.60
2023-03-17T06:51:07.239Z,4.90
2023-03-17T06:51:41.143Z,4.50
2023-03-17T06:52:14.692Z,4.30
2023-03-17T06:52:48.179Z,4.30
2023-03-17T06:53:22.039Z,4.10
2023-03-17T06:53:55.485Z,4.60
2023-03-17T06:54:29.311Z,4.70
2023-03-17T06:55:02.696Z,4.80
2023-03-17T06:55:36.237Z,4.80
2023-03-17T06:56:23.561Z,4.50
2023-03-17T06:57:01.010Z,4.30
2023-03-17T06:57:35.040Z,4.40
2023-03-17T06:58:10.791Z,4.60
2023-03-17T06:58:44.142Z,4.60
2023-03-17T06:59:18.086Z,4.60
2023-03-17T06:59:51.621Z,4.20
2023-03-17T07:00:25.434Z,4.00
2023-03-17T07:01:00.042Z,3.90
2023-03-17T07:01:33.941Z,4.10
2023-03-17T07:02:07.770Z,4.00
2023-03-17T07:02:41.605Z,4.20
2023-03-17T07:03:17.718Z,4.00
2023-03-17T07:03:53.949Z,4.10
2023-03-17T07:04:27.780Z,4.30
2023-03-17T07:05:01.947Z,4.50
2023-03-17T07:05:35.548Z,4.20
2023-03-17T07:06:09.083Z,3.90
2023-03-17T07:06:43.213Z,4.00
2023-03-17T07:07:16.979Z,4.00
2023-03-17T07:07:50.464Z,4.40
2023-03-17T07:08:23.995Z,4.60
2023-03-17T07:08:57.910Z,4.50
2023-03-17T07:09:34.563Z,4.40
2023-03-17T07:10:10.556Z,4.60
2023-03-17T07:10:44.349Z,4.20
2023-03-17T07:11:17.844Z,3.80
2023-03-17T07:11:51.917Z,4.10
2023-03-17T07:12:25.357Z,4.20
2023-03-17T07:12:59.277Z,4.20
2023-03-17T07:13:35.873Z,3.70
2023-03-17T07:14:09.278Z,3.80
2023-03-17T07:14:42.667Z,4.00
2023-03-17T07:15:17.455Z,3.80
2023-03-17T07:15:52.771Z,3.80
2023-03-17T07:16:27.868Z,3.90
2023-03-17T07:17:03.548Z,3.50
2023-03-17T07:17:37.539Z,3.70
2023-03-17T07:18:11.448Z,3.70
2023-03-17T07:18:45.307Z,3.80
2023-03-17T07:19:18.738Z,4.10
2023-03-17T07:19:53.316Z,4.10
2023-03-17T07:20:27.594Z,4.10
2023-03-17T07:21:02.485Z,4.10
2023-03-17T07:21:36.277Z,3.70
2023-03-17T07:22:13.500Z,3.50
2023-03-17T07:22:47.215Z,3.50
2023-03-17T07:23:23.076Z,3.90
2023-03-17T07:23:56.616Z,4.10
2023-03-17T07:24:32.513Z,3.80
2023-03-17T07:25:09.883Z,3.70
2023-03-17T07:25:44.766Z,3.70
2023-03-17T07:26:18.193Z,3.80
2023-03-17T07:26:52.830Z,3.80
2023-03-17T07:27:26.716Z,3.80
2023-03-17T07:28:00.461Z,3.50
2023-03-17T07:28:34.241Z,3.70
2023-03-17T07:29:08.515Z,3.30
2023-03-17T07:29:42.192Z,3.60
2023-03-17T07:30:19.406Z,3.30
2023-03-17T07:30:53.095Z,3.50
2023-03-17T07:31:26.993Z,3.40
2023-03-17T07:32:00.936Z,3.30
2023-03-17T07:32:35.759Z,3.30
2023-03-17T07:33:09.368Z,3.30
2023-03-17T07:33:42.872Z,3.40
2023-03-17T07:34:16.812Z,3.50
2023-03-17T07:34:50.433Z,3.20
2023-03-17T07:35:23.903Z,3.50
2023-03-17T07:35:57.524Z,3.70
2023-03-17T07:36:31.167Z,3.50
2023-03-17T07:37:06.557Z,3.40
2023-03-17T07:37:40.148Z,3.20
2023-03-17T07:38:13.707Z,3.20
2023-03-17T07:38:47.454Z,3.40
2023-03-17T07:39:21.269Z,3.30
2023-03-17T07:39:54.849Z,3.50
2023-03-17T07:40:28.348Z,3.60
2023-03-17T07:41:01.873Z,3.60
2023-03-17T07:41:35.403Z,3.30
2023-03-17T07:42:12.377Z,3.10
2023-03-17T07:42:46.071Z,3.20
2023-03-17T07:43:19.700Z,2.80
2023-03-17T07:43:53.372Z,2.70
2023-03-17T07:44:27.765Z,2.20
2023-03-17T07:45:01.353Z,2.70
2023-03-17T07:45:36.406Z,2.60
2023-03-17T07:46:09.881Z,2.40
2023-03-17T07:46:43.403Z,3.10
2023-03-17T07:47:16.946Z,2.70
2023-03-17T07:47:50.891Z,3.40
2023-03-17T07:48:24.376Z,2.30
2023-03-17T07:48:58.463Z,1.90
2023-03-17T07:49:41.214Z,1.70
2023-03-17T07:50:15.814Z,1.50
2023-03-17T07:50:51.571Z,1.40
2023-03-17T07:51:28.336Z,1.40
2023-03-17T07:52:01.910Z,1.40
2023-03-17T07:52:38.184Z,1.90
2023-03-17T07:53:11.962Z,1.60
2023-03-17T07:53:46.568Z,1.80
2023-03-17T07:54:20.084Z,1.90